createdAt,value
2019-03-24T00:02:27.371Z,8.90
2019-03-24T00:04:58.182Z,9.43
2019-03-24T00:07:29.007Z,9.77
2019-03-24T00:10:00.362Z,8.43
2019-03-24T00:12:32.406Z,10.23
2019-03-24T00:15:03.759Z,8.10
2019-03-24T00:17:35.103Z,9.40
2019-03-24T00:20:06.583Z,8.87
2019-03-24T00:22:37.994Z,8.23
2019-03-24T00:25:08.855Z,9.73
2019-03-24T00:27:39.776Z,10.60
2019-03-24T00:30:12.457Z,10.57
2019-03-24T00:32:43.709Z,10.23
2019-03-24T00:35:14.759Z,12.33
2019-03-24T00:37:46.102Z,10.80
2019-03-24T00:40:17.633Z,12.37
2019-03-24T00:42:48.804Z,12.13
2019-03-24T00:45:19.641Z,9.73
2019-03-24T00:47:50.559Z,12.10
2019-03-24T00:50:21.692Z,14.53
2019-03-24T00:52:52.576Z,14.83
2019-03-24T00:55:23.703Z,13.67
2019-03-24T00:57:54.849Z,12.87
2019-03-24T01:00:43.083Z,13.20
2019-03-24T01:03:15.166Z,13.40
2019-03-24T01:05:46.556Z,13.37
2019-03-24T01:08:17.397Z,14.13
2019-03-24T01:10:48.156Z,12.43
2019-03-24T01:13:19.343Z,13.20
2019-03-24T01:15:50.194Z,13.40
2019-03-24T01:18:21.309Z,13.50
2019-03-24T01:20:52.453Z,12.00
2019-03-24T01:23:23.437Z,10.93
2019-03-24T01:25:54.663Z,13.63
2019-03-24T01:28:25.491Z,12.10
2019-03-24T01:30:56.468Z,13.37
2019-03-24T01:33:27.240Z,14.63
2019-03-24T01:35:57.990Z,13.20
2019-03-24T01:38:29.673Z,12.23
2019-03-24T01:41:00.792Z,13.07
2019-03-24T01:43:32.727Z,12.50
2019-03-24T01:46:03.788Z,12.47
2019-03-24T01:48:34.692Z,11.37
2019-03-24T01:51:05.546Z,12.50
2019-03-24T01:53:36.334Z,12.30
2019-03-24T01:56:08.400Z,11.20
2019-03-24T01:58:39.522Z,13.63
2019-03-24T02:01:10.719Z,12.73
2019-03-24T02:03:41.538Z,11.30
2019-03-24T02:06:12.845Z,12.20
2019-03-24T02:08:43.704Z,11.20
2019-03-24T02:11:14.492Z,11.70
2019-03-24T02:13:45.759Z,10.70
2019-03-24T02:16:16.579Z,11.83
2019-03-24T02:18:47.766Z,13.30
2019-03-24T02:21:18.887Z,13.50
2019-03-24T02:23:50.027Z,12.80
2019-03-24T02:26:21.451Z,13.47
2019-03-24T02:28:52.432Z,12.20
2019-03-24T02:31:23.340Z,11.17
2019-03-24T02:33:54.287Z,11.13
2019-03-24T02:36:25.200Z,12.60
2019-03-24T02:38:56.709Z,12.73
2019-03-24T02:41:27.527Z,11.83
2019-03-24T02:43:58.329Z,12.40
2019-03-24T02:46:29.092Z,11.50
2019-03-24T02:49:00.880Z,11.20
2019-03-24T02:51:31.744Z,12.60
2019-03-24T02:54:02.693Z,10.60
2019-03-24T02:56:33.827Z,11.57
2019-03-24T02:59:05.017Z,11.90
2019-03-24T03:01:35.846Z,12.43
2019-03-24T03:04:06.748Z,14.07
2019-03-24T03:06:37.573Z,12.73
2019-03-24T03:09:09.130Z,14.13
2019-03-24T03:11:40.059Z,16.83
2019-03-24T03:14:10.846Z,15.07
2019-03-24T03:19:37.543Z,16.83
2019-03-24T03:22:08.970Z,16.73
2019-03-24T03:24:39.840Z,17.50
2019-03-24T03:27:10.918Z,18.87
2019-03-24T03:29:41.995Z,17.73
2019-03-24T03:32:12.813Z,18.47
2019-03-24T03:34:44.395Z,19.33
2019-03-24T03:37:15.601Z,17.50
2019-03-24T03:39:46.880Z,16.90
2019-03-24T03:42:18.837Z,18.00
2019-03-24T03:44:49.808Z,20.53
2019-03-24T03:47:20.539Z,19.53
2019-03-24T03:49:51.360Z,19.50
2019-03-24T03:52:22.149Z,18.90
2019-03-24T03:54:52.954Z,19.33
2019-03-24T03:57:23.791Z,20.80
2019-03-24T03:59:54.903Z,23.67
2019-03-24T04:02:26.406Z,22.13
2019-03-24T04:04:57.233Z,19.60
2019-03-24T04:07:27.983Z,22.60
2019-03-24T04:09:58.787Z,20.07
2019-03-24T04:12:29.578Z,25.83
2019-03-24T04:15:01.637Z,22.00
2019-03-24T04:17:32.781Z,19.77
2019-03-24T04:20:04.637Z,22.07
2019-03-24T04:22:35.982Z,21.73
2019-03-24T04:25:07.085Z,20.23
2019-03-24T04:27:37.862Z,20.93
2019-03-24T04:30:09.306Z,24.47
2019-03-24T04:32:40.052Z,21.10
2019-03-24T04:35:11.305Z,22.87
2019-03-24T04:37:42.215Z,25.90
2019-03-24T04:40:13.141Z,27.83
2019-03-24T04:42:44.349Z,28.00
2019-03-24T04:45:15.582Z,27.03
2019-03-24T04:47:46.393Z,26.87
2019-03-24T04:50:17.286Z,24.70
2019-03-24T04:52:48.089Z,28.27
2019-03-24T04:55:18.865Z,27.20
2019-03-24T04:57:49.646Z,27.67
2019-03-24T05:00:25.509Z,26.53
2019-03-24T05:02:56.331Z,24.37
2019-03-24T05:05:27.237Z,22.03
2019-03-24T05:07:58.002Z,22.70
2019-03-24T05:10:29.102Z,19.37
2019-03-24T05:12:59.910Z,20.20
2019-03-24T05:15:31.065Z,20.83
2019-03-24T05:18:02.179Z,16.90
2019-03-24T05:20:33.021Z,22.70
2019-03-24T05:23:04.433Z,19.33
2019-03-24T05:25:35.244Z,20.43
2019-03-24T05:28:06.035Z,18.98
2019-03-24T05:30:36.812Z,22.93
2019-03-24T05:33:07.698Z,24.77
2019-03-24T05:35:38.502Z,23.60
2019-03-24T05:38:09.691Z,26.23
2019-03-24T05:40:40.764Z,26.10
2019-03-24T05:43:11.569Z,25.10
2019-03-24T05:45:43.241Z,25.70
2019-03-24T05:48:14.050Z,25.10
2019-03-24T05:50:44.840Z,27.17
2019-03-24T05:53:15.968Z,27.43
2019-03-24T05:55:46.829Z,28.13
2019-03-24T05:58:18.391Z,26.13
2019-03-24T06:00:49.979Z,26.43
2019-03-24T06:03:20.730Z,26.83
2019-03-24T06:05:52.559Z,24.40
2019-03-24T06:08:23.377Z,23.37
2019-03-24T06:10:55.138Z,26.73
2019-03-24T06:13:25.917Z,23.23
2019-03-24T06:15:58.237Z,25.27
2019-03-24T06:18:29.357Z,22.57
2019-03-24T06:21:00.504Z,21.77
2019-03-24T06:23:31.647Z,22.90
2019-03-24T06:26:02.520Z,19.00
2019-03-24T06:28:33.265Z,20.53
2019-03-24T06:31:04.356Z,24.17
2019-03-24T06:33:35.174Z,20.07
2019-03-24T06:36:05.954Z,18.73
2019-03-24T06:38:37.206Z,18.80
2019-03-24T06:41:08.052Z,16.83
2019-03-24T06:43:39.109Z,17.63
2019-03-24T06:46:09.928Z,17.20
2019-03-24T06:48:40.749Z,16.43
2019-03-24T06:51:11.710Z,21.17
2019-03-24T06:53:42.489Z,19.13
2019-03-24T06:56:13.269Z,17.77
2019-03-24T06:58:45.591Z,19.87
2019-03-24T07:01:17.574Z,17.13
2019-03-24T07:03:48.401Z,18.03
2019-03-24T07:06:23.664Z,22.57
2019-03-24T07:08:56.244Z,18.40
2019-03-24T07:11:27.592Z,18.27
2019-03-24T07:13:58.738Z,18.83
2019-03-24T07:16:30.173Z,18.60
2019-03-24T07:19:01.764Z,20.70
2019-03-24T07:21:34.247Z,21.90
2019-03-24T07:24:06.064Z,17.83
2019-03-24T07:26:36.941Z,20.30
2019-03-24T07:29:08.077Z,22.43
2019-03-24T07:31:38.968Z,22.07
2019-03-24T07:34:10.642Z,20.37
2019-03-24T07:36:42.484Z,17.90
2019-03-24T07:39:14.093Z,20.90
2019-03-24T07:41:52.769Z,20.43
2019-03-24T07:44:31.689Z,19.80
2019-03-24T07:47:06.984Z,22.17
2019-03-24T07:49:38.021Z,19.63
2019-03-24T07:52:09.435Z,24.37
2019-03-24T07:54:40.951Z,22.20
2019-03-24T07:57:12.546Z,22.63
2019-03-24T07:59:44.469Z,28.00
2019-03-24T08:02:24.185Z,32.73
2019-03-24T08:04:58.840Z,36.63
2019-03-24T08:07:33.174Z,41.37
2019-03-24T08:10:05.768Z,38.40
2019-03-24T08:12:36.790Z,40.93
2019-03-24T08:15:09.184Z,33.00
2019-03-24T08:17:40.066Z,32.93
2019-03-24T08:20:12.434Z,29.10
2019-03-24T08:22:44.060Z,36.00
2019-03-24T08:25:14.913Z,32.83
2019-03-24T08:27:45.813Z,31.33
2019-03-24T08:30:20.896Z,40.70
2019-03-24T08:32:51.888Z,39.37
2019-03-24T08:35:23.176Z,39.97
2019-03-24T08:37:54.442Z,40.43
2019-03-24T08:40:26.194Z,39.40
2019-03-24T08:42:57.125Z,37.07
2019-03-24T08:45:29.642Z,38.17
2019-03-24T08:48:01.031Z,39.63
2019-03-24T08:50:33.318Z,40.17
2019-03-24T08:53:04.389Z,40.47
2019-03-24T08:55:36.567Z,37.97
2019-03-24T08:58:07.863Z,37.07
2019-03-24T09:00:38.735Z,35.63
2019-03-24T09:03:10.633Z,36.00
2019-03-24T09:05:42.054Z,36.23
2019-03-24T09:08:14.757Z,36.73
2019-03-24T09:10:46.573Z,37.23
2019-03-24T09:13:20.740Z,35.63
2019-03-24T09:15:52.824Z,36.37
2019-03-24T09:18:25.502Z,35.53
2019-03-24T09:20:57.366Z,38.13
2019-03-24T09:23:30.564Z,35.60
2019-03-24T09:26:05.019Z,37.13
2019-03-24T09:28:38.229Z,39.93
2019-03-24T09:31:11.942Z,42.13
2019-03-24T09:33:43.195Z,43.70
2019-03-24T09:36:15.827Z,38.57
2019-03-24T09:38:47.904Z,39.30
2019-03-24T09:41:19.425Z,40.00
2019-03-24T09:43:50.859Z,39.90
2019-03-24T09:46:22.502Z,40.87
2019-03-24T09:49:02.723Z,45.73
2019-03-24T09:51:28.194Z,43.17
2019-03-24T09:54:03.400Z,43.08
2019-03-24T09:56:34.265Z,32.67
2019-03-24T09:59:05.505Z,37.88
2019-03-24T10:01:37.589Z,30.95
2019-03-24T10:04:09.016Z,30.02
2019-03-24T10:06:40.050Z,28.35
2019-03-24T10:09:11.839Z,31.93
2019-03-24T10:11:43.013Z,35.63
2019-03-24T10:14:14.032Z,29.55
2019-03-24T10:16:45.021Z,28.57
2019-03-24T10:19:15.879Z,33.95
2019-03-24T10:21:48.808Z,32.70
2019-03-24T10:24:19.805Z,33.23
2019-03-24T10:26:50.690Z,35.88
2019-03-24T10:29:21.653Z,28.42
2019-03-24T10:31:52.948Z,32.63
2019-03-24T10:34:25.480Z,30.75
2019-03-24T10:36:56.770Z,35.83
2019-03-24T10:39:29.082Z,29.20
2019-03-24T10:42:00.118Z,32.93
2019-03-24T10:44:31.343Z,33.10
2019-03-24T10:47:02.579Z,29.10
2019-03-24T10:49:35.920Z,31.37
2019-03-24T10:52:07.219Z,31.50
2019-03-24T10:54:38.154Z,30.10
2019-03-24T10:57:09.421Z,29.32
2019-03-24T10:59:40.675Z,32.50
2019-03-24T11:02:13.068Z,33.67
2019-03-24T11:04:44.013Z,26.50
2019-03-24T11:07:23.823Z,31.55
2019-03-24T11:09:54.820Z,28.45
2019-03-24T11:12:27.788Z,34.03
2019-03-24T11:14:58.684Z,30.40
2019-03-24T11:17:29.974Z,32.87
2019-03-24T11:20:00.935Z,32.20
2019-03-24T11:22:31.938Z,36.00
2019-03-24T11:25:02.859Z,32.83
2019-03-24T11:27:33.699Z,32.70
2019-03-24T11:30:05.836Z,31.63
2019-03-24T11:32:37.357Z,34.35
2019-03-24T11:35:10.320Z,32.85
2019-03-24T11:37:41.294Z,32.98
2019-03-24T11:40:14.337Z,35.50
2019-03-24T11:42:45.071Z,28.65
2019-03-24T11:45:16.439Z,30.27
2019-03-24T11:47:47.545Z,33.13
2019-03-24T11:50:18.734Z,31.37
2019-03-24T11:52:49.538Z,33.70
2019-03-24T11:55:21.569Z,32.33
2019-03-24T11:57:52.390Z,35.50
2019-03-24T12:00:35.167Z,32.23
2019-03-24T12:03:06.744Z,34.62
2019-03-24T12:05:38.245Z,36.40
2019-03-24T12:08:09.214Z,32.50
2019-03-24T12:10:40.054Z,31.77
2019-03-24T12:13:10.943Z,32.30
2019-03-24T12:15:41.846Z,34.58
2019-03-24T12:18:12.599Z,27.77
2019-03-24T12:20:43.681Z,29.70
2019-03-24T12:23:15.355Z,33.53
2019-03-24T12:25:46.186Z,25.23
2019-03-24T12:28:18.353Z,30.75
2019-03-24T12:30:49.597Z,35.48
2019-03-24T12:33:20.452Z,31.17
2019-03-24T12:35:51.682Z,28.70
2019-03-24T12:38:22.809Z,26.87
2019-03-24T12:40:54.005Z,29.87
2019-03-24T12:43:26.346Z,31.55
2019-03-24T12:45:57.114Z,32.23
2019-03-24T12:48:27.965Z,27.75
2019-03-24T12:50:59.556Z,27.25
2019-03-24T12:53:30.474Z,31.02
2019-03-24T12:56:01.270Z,24.85
2019-03-24T12:58:32.508Z,21.87
2019-03-24T13:01:03.686Z,24.27
2019-03-24T13:03:35.944Z,23.02
2019-03-24T13:06:07.060Z,25.70
2019-03-24T13:08:38.866Z,24.23
2019-03-24T13:11:09.791Z,29.57
2019-03-24T13:13:40.609Z,19.15
2019-03-24T13:16:11.429Z,22.80
2019-03-24T13:18:42.798Z,20.05
2019-03-24T13:21:14.002Z,20.68
2019-03-24T13:23:44.875Z,21.40
2019-03-24T13:26:15.629Z,22.25
2019-03-24T13:28:46.556Z,25.00
2019-03-24T13:31:17.377Z,20.75
2019-03-24T13:33:48.222Z,25.72
2019-03-24T13:36:19.949Z,20.88
2019-03-24T13:38:52.249Z,20.95
2019-03-24T13:41:24.003Z,19.15
2019-03-24T13:43:55.145Z,19.75
2019-03-24T13:46:26.278Z,19.07
2019-03-24T13:48:58.017Z,19.73
2019-03-24T13:51:30.501Z,20.08
2019-03-24T13:54:01.620Z,21.20
2019-03-24T13:56:32.712Z,19.77
2019-03-24T13:59:03.516Z,28.50
2019-03-24T14:01:34.521Z,20.85
2019-03-24T14:04:05.257Z,18.87
2019-03-24T14:06:36.749Z,20.67
2019-03-24T14:09:10.795Z,20.27
2019-03-24T14:11:41.994Z,17.95
2019-03-24T14:14:12.825Z,18.92
2019-03-24T14:16:46.459Z,21.73
2019-03-24T14:19:17.752Z,19.20
2019-03-24T14:21:49.139Z,23.90
2019-03-24T14:24:19.958Z,20.85
2019-03-24T14:26:50.853Z,19.75
2019-03-24T14:29:21.670Z,16.48
2019-03-24T14:31:52.505Z,17.02
2019-03-24T14:34:24.158Z,16.23
2019-03-24T14:36:56.929Z,15.35
2019-03-24T14:39:28.104Z,17.80
2019-03-24T14:41:59.305Z,23.42
2019-03-24T14:44:31.431Z,23.75
2019-03-24T14:47:02.622Z,23.92
2019-03-24T14:49:34.517Z,26.07
2019-03-24T14:52:06.477Z,29.07
2019-03-24T14:54:37.344Z,15.78
2019-03-24T14:57:08.157Z,15.08
2019-03-24T14:59:39.925Z,16.87
2019-03-24T15:02:11.136Z,16.30
2019-03-24T15:04:41.941Z,16.07
2019-03-24T15:07:12.740Z,16.65
2019-03-24T15:09:44.096Z,14.73
2019-03-24T15:12:15.060Z,16.65
2019-03-24T15:14:46.238Z,15.15
2019-03-24T15:17:17.114Z,13.65
2019-03-24T15:19:48.182Z,16.25
2019-03-24T15:22:19.658Z,12.33
2019-03-24T15:24:50.642Z,15.35
2019-03-24T15:27:21.956Z,15.98
2019-03-24T15:29:53.136Z,13.72
2019-03-24T15:32:24.013Z,12.47
2019-03-24T15:34:55.598Z,15.28
2019-03-24T15:37:27.356Z,11.65
2019-03-24T15:39:59.492Z,17.37
2019-03-24T15:42:30.965Z,14.10
2019-03-24T15:45:02.215Z,11.30
2019-03-24T15:47:33.423Z,14.83
2019-03-24T15:50:05.801Z,13.05
2019-03-24T15:52:37.346Z,11.73
2019-03-24T15:55:08.982Z,14.25
2019-03-24T15:57:40.299Z,11.33
2019-03-24T16:00:11.640Z,16.57
2019-03-24T16:02:43.127Z,11.40
2019-03-24T16:05:14.225Z,11.55
2019-03-24T16:07:45.004Z,11.90
2019-03-24T16:10:16.172Z,9.48
2019-03-24T16:12:47.008Z,12.63
2019-03-24T16:15:17.996Z,16.10
2019-03-24T16:17:49.304Z,19.23
2019-03-24T16:20:21.304Z,16.50
2019-03-24T16:22:52.563Z,18.27
2019-03-24T16:25:23.404Z,23.70
2019-03-24T16:27:54.899Z,23.35
2019-03-24T16:30:25.679Z,31.17
2019-03-24T16:32:57.068Z,25.75
2019-03-24T16:35:28.306Z,23.05
2019-03-24T16:37:59.563Z,22.27
2019-03-24T16:40:31.184Z,28.02
2019-03-24T16:43:02.423Z,24.10
2019-03-24T16:45:33.774Z,26.65
2019-03-24T16:48:05.050Z,25.40
2019-03-24T16:50:36.643Z,20.50
2019-03-24T16:53:07.917Z,24.87
2019-03-24T16:55:38.673Z,27.53
2019-03-24T16:58:10.113Z,29.60
2019-03-24T17:00:41.697Z,29.23
2019-03-24T17:03:12.533Z,27.70
2019-03-24T17:05:43.850Z,27.58
2019-03-24T17:08:14.764Z,24.45
2019-03-24T17:10:45.627Z,30.77
2019-03-24T17:13:18.300Z,29.23
2019-03-24T17:15:49.858Z,28.50
2019-03-24T17:18:21.183Z,23.80
2019-03-24T17:20:53.370Z,26.93
2019-03-24T17:23:24.557Z,30.75
2019-03-24T17:25:56.682Z,25.57
2019-03-24T17:28:28.271Z,43.35
2019-03-24T17:30:59.067Z,39.63
2019-03-24T17:33:30.130Z,30.83
2019-03-24T17:36:02.432Z,31.70
2019-03-24T17:38:34.666Z,29.87
2019-03-24T17:41:06.670Z,29.77
2019-03-24T17:43:37.742Z,31.73
2019-03-24T17:46:08.612Z,31.13
2019-03-24T17:48:39.484Z,40.17
2019-03-24T17:51:10.693Z,32.23
2019-03-24T17:53:41.579Z,31.87
2019-03-24T17:56:13.085Z,34.03
2019-03-24T17:58:45.455Z,30.37
2019-03-24T18:01:18.124Z,39.70
2019-03-24T18:03:48.934Z,34.63
2019-03-24T18:06:20.190Z,30.20
2019-03-24T18:08:51.492Z,30.77
2019-03-24T18:11:22.330Z,27.30
2019-03-24T18:13:53.899Z,26.20
2019-03-24T18:16:24.764Z,27.70
2019-03-24T18:18:56.133Z,30.50
2019-03-24T18:21:26.938Z,27.77
2019-03-24T18:23:58.083Z,34.23
2019-03-24T18:26:28.883Z,30.40
2019-03-24T18:28:59.663Z,28.77
2019-03-24T18:31:30.458Z,28.97
2019-03-24T18:34:01.344Z,27.03
2019-03-24T18:36:32.598Z,29.77
2019-03-24T18:39:03.883Z,32.43
2019-03-24T18:41:35.686Z,29.40
2019-03-24T18:44:06.885Z,27.60
2019-03-24T18:46:38.103Z,33.70
2019-03-24T18:49:08.933Z,30.63
2019-03-24T18:51:39.741Z,30.45
2019-03-24T18:54:10.624Z,30.53
2019-03-24T18:56:41.860Z,31.27
2019-03-24T18:59:12.948Z,30.93
2019-03-24T19:01:44.623Z,28.90
2019-03-24T19:04:15.946Z,30.97
2019-03-24T19:06:47.094Z,32.37
2019-03-24T19:09:18.198Z,31.10
2019-03-24T19:11:49.072Z,30.10
2019-03-24T19:14:20.141Z,29.90
2019-03-24T19:16:50.943Z,32.73
2019-03-24T19:19:22.131Z,35.50
2019-03-24T19:21:52.916Z,31.13
2019-03-24T19:24:24.172Z,31.30
2019-03-24T19:26:55.691Z,32.48
2019-03-24T19:29:28.475Z,32.23
2019-03-24T19:31:59.766Z,30.20
2019-03-24T19:34:30.716Z,30.67
2019-03-24T19:37:01.539Z,26.70
2019-03-24T19:39:33.391Z,27.63
2019-03-24T19:42:04.604Z,29.40
2019-03-24T19:44:35.726Z,27.17
2019-03-24T19:47:06.510Z,29.53
2019-03-24T19:49:37.323Z,28.87
2019-03-24T19:52:08.641Z,28.67
2019-03-24T19:54:39.487Z,35.83
2019-03-24T19:57:10.649Z,32.07
2019-03-24T19:59:41.474Z,29.93
2019-03-24T20:02:12.620Z,31.40
2019-03-24T20:04:43.745Z,28.80
2019-03-24T20:07:14.555Z,29.43
2019-03-24T20:09:45.434Z,27.40
2019-03-24T20:12:16.251Z,27.27
2019-03-24T20:14:47.633Z,28.23
2019-03-24T20:17:18.557Z,25.93
2019-03-24T20:19:49.947Z,27.47
2019-03-24T20:22:20.790Z,26.67
2019-03-24T20:24:51.903Z,25.60
2019-03-24T20:27:22.765Z,27.10
2019-03-24T20:29:53.767Z,28.40
2019-03-24T20:32:25.432Z,29.73
2019-03-24T20:34:57.712Z,26.10
2019-03-24T20:37:28.828Z,29.57
2019-03-24T20:40:00.402Z,30.83
2019-03-24T20:42:31.808Z,29.67
2019-03-24T20:45:03.185Z,29.90
2019-03-24T20:47:34.998Z,28.13
2019-03-24T20:50:06.625Z,31.03
2019-03-24T20:52:38.385Z,28.20
2019-03-24T20:55:10.736Z,25.60
2019-03-24T20:57:41.992Z,29.67
2019-03-24T21:00:14.003Z,30.47
2019-03-24T21:02:45.970Z,37.60
2019-03-24T21:05:16.800Z,34.20
2019-03-24T21:07:49.595Z,32.27
2019-03-24T21:10:20.738Z,30.57
2019-03-24T21:12:51.930Z,27.40
2019-03-24T21:15:22.923Z,29.57
2019-03-24T21:17:54.347Z,25.70
2019-03-24T21:20:25.220Z,27.67
2019-03-24T21:22:56.709Z,25.87
2019-03-24T21:25:28.787Z,26.43
2019-03-24T21:27:59.927Z,27.83
2019-03-24T21:30:38.882Z,28.37
2019-03-24T21:33:10.306Z,27.13
2019-03-24T21:35:42.068Z,28.20
2019-03-24T21:38:13.607Z,29.90
2019-03-24T21:40:44.404Z,29.30
2019-03-24T21:43:15.905Z,29.87
2019-03-24T21:45:47.046Z,31.57
2019-03-24T21:48:18.868Z,43.60
2019-03-24T21:50:50.054Z,44.43
2019-03-24T21:53:21.607Z,43.60
2019-03-24T21:55:52.442Z,50.83
2019-03-24T21:58:24.409Z,51.27
2019-03-24T22:00:55.210Z,41.97
2019-03-24T22:03:26.394Z,32.40
2019-03-24T22:05:57.595Z,35.37
2019-03-24T22:08:29.080Z,41.83
2019-03-24T22:11:00.188Z,46.10
2019-03-24T22:13:31.001Z,43.47
2019-03-24T22:16:01.800Z,35.87
2019-03-24T22:18:33.711Z,33.83
2019-03-24T22:21:04.807Z,33.33
2019-03-24T22:23:36.364Z,33.87
2019-03-24T22:26:08.016Z,35.57
2019-03-24T22:28:39.256Z,35.27
2019-03-24T22:31:10.420Z,33.97
2019-03-24T22:33:41.234Z,37.50
2019-03-24T22:36:12.131Z,33.07
2019-03-24T22:38:43.543Z,41.17
2019-03-24T22:41:15.247Z,37.50
2019-03-24T22:43:47.192Z,35.97
2019-03-24T22:46:18.695Z,38.77
2019-03-24T22:48:49.951Z,34.40
2019-03-24T22:51:20.843Z,36.50
2019-03-24T22:54:02.776Z,33.47
2019-03-24T22:56:24.505Z,37.90
2019-03-24T22:58:56.570Z,35.87
2019-03-24T23:01:27.890Z,36.70
2019-03-24T23:03:58.864Z,34.00
2019-03-24T23:06:30.001Z,30.30
2019-03-24T23:09:00.841Z,36.10
2019-03-24T23:11:32.712Z,33.53
2019-03-24T23:14:03.593Z,33.63
2019-03-24T23:16:34.380Z,33.07
2019-03-24T23:19:07.067Z,31.67
2019-03-24T23:21:38.562Z,27.77
2019-03-24T23:24:15.480Z,29.53
2019-03-24T23:26:43.669Z,32.13
2019-03-24T23:29:14.640Z,30.77
2019-03-24T23:31:45.566Z,30.70
2019-03-24T23:34:16.481Z,31.60
2019-03-24T23:36:47.214Z,30.10
2019-03-24T23:39:18.461Z,30.37
2019-03-24T23:41:49.373Z,29.53
2019-03-24T23:44:20.209Z,30.77
2019-03-24T23:46:51.486Z,35.27
2019-03-24T23:49:22.728Z,33.60
2019-03-24T23:51:53.593Z,31.83
2019-03-24T23:54:27.234Z,39.07
2019-03-24T23:56:57.011Z,36.47
2019-03-24T23:59:28.958Z,32.33
